sensor_id;sensor_type;location;lat;lon;timestamp;temperature;humidity
12015;DHT22;6066;48.138;16.402;2024-03-17T00:00:18;10.60;99.90
12015;DHT22;6066;48.138;16.402;2024-03-17T00:02:45;10.50;99.90
12015;DHT22;6066;48.138;16.402;2024-03-17T00:05:10;10.50;99.90
12015;DHT22;6066;48.138;16.402;2024-03-17T00:07:38;10.50;99.90
12015;DHT22;6066;48.138;16.402;2024-03-17T00:10:04;10.50;99.90
12015;DHT22;6066;48.138;16.402;2024-03-17T00:12:32;10.40;99.90
12015;DHT22;6066;48.138;16.402;2024-03-17T00:14:58;10.30;99.90
12015;DHT22;6066;48.138;16.402;2024-03-17T00:17:25;10.30;99.90
12015;DHT22;6066;48.138;16.402;2024-03-17T00:19:50;10.20;99.90
12015;DHT22;6066;48.138;16.402;2024-03-17T00:22:17;10.30;99.90
12015;DHT22;6066;48.138;16.402;2024-03-17T00:24:44;10.20;99.90
12015;DHT22;6066;48.138;16.402;2024-03-17T00:27:11;10.20;99.90
12015;DHT22;6066;48.138;16.402;2024-03-17T00:29:37;10.20;99.90
12015;DHT22;6066;48.138;16.402;2024-03-17T00:32:04;10.10;99.90
12015;DHT22;6066;48.138;16.402;2024-03-17T00:34:30;10.10;99.90
12015;DHT22;6066;48.138;16.402;2024-03-17T00:36:57;10.00;99.90
12015;DHT22;6066;48.138;16.402;2024-03-17T00:39:22;9.90;99.90
12015;DHT22;6066;48.138;16.402;2024-03-17T00:41:50;9.90;99.90
12015;DHT22;6066;48.138;16.402;2024-03-17T00:44:16;9.90;99.90
12015;DHT22;6066;48.138;16.402;2024-03-17T00:46:43;9.90;99.90
12015;DHT22;6066;48.138;16.402;2024-03-17T00:49:09;9.90;99.90
12015;DHT22;6066;48.138;16.402;2024-03-17T00:51:36;9.80;99.90
12015;DHT22;6066;48.138;16.402;2024-03-17T00:54:02;9.80;99.90
12015;DHT22;6066;48.138;16.402;2024-03-17T00:56:29;9.80;99.90
12015;DHT22;6066;48.138;16.402;2024-03-17T00:58:56;9.80;99.90
12015;DHT22;6066;48.138;16.402;2024-03-17T01:01:23;9.70;99.90
12015;DHT22;6066;48.138;16.402;2024-03-17T01:03:50;9.80;99.90
12015;DHT22;6066;48.138;16.402;2024-03-17T01:06:17;9.70;99.90
12015;DHT22;6066;48.138;16.402;2024-03-17T01:08:43;9.70;99.90
12015;DHT22;6066;48.138;16.402;2024-03-17T01:11:13;9.70;99.90
12015;DHT22;6066;48.138;16.402;2024-03-17T01:13:39;9.80;99.90
12015;DHT22;6066;48.138;16.402;2024-03-17T01:16:08;9.80;99.90
12015;DHT22;6066;48.138;16.402;2024-03-17T01:18:35;9.80;99.90
12015;DHT22;6066;48.138;16.402;2024-03-17T01:21:02;9.80;99.90
12015;DHT22;6066;48.138;16.402;2024-03-17T01:23:29;9.80;99.90
12015;DHT22;6066;48.138;16.402;2024-03-17T01:25:55;9.70;99.90
12015;DHT22;6066;48.138;16.402;2024-03-17T01:28:21;9.80;99.90
12015;DHT22;6066;48.138;16.402;2024-03-17T01:30:47;9.80;99.90
12015;DHT22;6066;48.138;16.402;2024-03-17T01:33:15;9.90;99.90
12015;DHT22;6066;48.138;16.402;2024-03-17T01:35:42;10.00;99.90
12015;DHT22;6066;48.138;16.402;2024-03-17T01:38:09;10.00;99.90
12015;DHT22;6066;48.138;16.402;2024-03-17T01:40:35;10.00;99.90
12015;DHT22;6066;48.138;16.402;2024-03-17T01:43:02;10.00;99.90
12015;DHT22;6066;48.138;16.402;2024-03-17T01:45:28;10.00;99.90
12015;DHT22;6066;48.138;16.402;2024-03-17T01:47:56;10.10;99.90
12015;DHT22;6066;48.138;16.402;2024-03-17T01:50:25;10.20;99.90
12015;DHT22;6066;48.138;16.402;2024-03-17T01:52:53;10.20;99.90
12015;DHT22;6066;48.138;16.402;2024-03-17T01:55:19;10.10;99.90
12015;DHT22;6066;48.138;16.402;2024-03-17T01:57:47;10.10;99.90
12015;DHT22;6066;48.138;16.402;2024-03-17T02:00:13;10.10;99.90
12015;DHT22;6066;48.138;16.402;2024-03-17T02:02:40;10.10;99.90
12015;DHT22;6066;48.138;16.402;2024-03-17T02:05:06;10.00;99.90
12015;DHT22;6066;48.138;16.402;2024-03-17T02:07:35;10.00;99.90
12015;DHT22;6066;48.138;16.402;2024-03-17T02:10:01;10.10;99.90
12015;DHT22;6066;48.138;16.402;2024-03-17T02:12:29;10.00;99.90
12015;DHT22;6066;48.138;16.402;2024-03-17T02:14:56;10.00;99.90
12015;DHT22;6066;48.138;16.402;2024-03-17T02:17:22;9.90;99.90
12015;DHT22;6066;48.138;16.402;2024-03-17T02:19:50;9.80;99.90
12015;DHT22;6066;48.138;16.402;2024-03-17T02:22:18;9.80;99.90
12015;DHT22;6066;48.138;16.402;2024-03-17T02:24:44;9.70;99.90
12015;DHT22;6066;48.138;16.402;2024-03-17T02:27:11;9.60;99.90
12015;DHT22;6066;48.138;16.402;2024-03-17T02:29:37;9.50;99.90
12015;DHT22;6066;48.138;16.402;2024-03-17T02:32:04;9.50;99.90
12015;DHT22;6066;48.138;16.402;2024-03-17T02:34:32;9.50;99.90
12015;DHT22;6066;48.138;16.402;2024-03-17T02:36:59;9.30;99.90
12015;DHT22;6066;48.138;16.402;2024-03-17T02:39:26;9.30;99.90
12015;DHT22;6066;48.138;16.402;2024-03-17T02:42:04;9.20;99.90
12015;DHT22;6066;48.138;16.402;2024-03-17T02:44:31;9.10;99.90
12015;DHT22;6066;48.138;16.402;2024-03-17T02:46:57;9.10;99.90
12015;DHT22;6066;48.138;16.402;2024-03-17T02:49:24;9.10;99.90
12015;DHT22;6066;48.138;16.402;2024-03-17T02:51:52;9.00;99.90
12015;DHT22;6066;48.138;16.402;2024-03-17T02:54:19;9.00;99.90
12015;DHT22;6066;48.138;16.402;2024-03-17T02:56:47;9.00;99.90
12015;DHT22;6066;48.138;16.402;2024-03-17T02:59:14;9.00;99.90
12015;DHT22;6066;48.138;16.402;2024-03-17T03:01:41;8.90;99.90
12015;DHT22;6066;48.138;16.402;2024-03-17T03:04:08;8.80;99.90
12015;DHT22;6066;48.138;16.402;2024-03-17T03:06:35;8.70;99.90
12015;DHT22;6066;48.138;16.402;2024-03-17T03:09:01;8.70;99.90
12015;DHT22;6066;48.138;16.402;2024-03-17T03:11:30;8.60;99.90
12015;DHT22;6066;48.138;16.402;2024-03-17T03:13:59;8.60;99.90
12015;DHT22;6066;48.138;16.402;2024-03-17T03:16:25;8.60;99.90
12015;DHT22;6066;48.138;16.402;2024-03-17T03:18:52;8.50;99.90
12015;DHT22;6066;48.138;16.402;2024-03-17T03:21:19;8.50;99.90
12015;DHT22;6066;48.138;16.402;2024-03-17T03:23:47;8.50;99.90
12015;DHT22;6066;48.138;16.402;2024-03-17T03:26:14;8.50;99.90
12015;DHT22;6066;48.138;16.402;2024-03-17T03:28:40;8.40;99.90
12015;DHT22;6066;48.138;16.402;2024-03-17T03:31:11;8.40;99.90
12015;DHT22;6066;48.138;16.402;2024-03-17T03:33:39;8.40;99.90
12015;DHT22;6066;48.138;16.402;2024-03-17T03:36:07;8.40;99.90
12015;DHT22;6066;48.138;16.402;2024-03-17T03:38:34;8.40;99.90
12015;DHT22;6066;48.138;16.402;2024-03-17T03:41:05;8.40;99.90
12015;DHT22;6066;48.138;16.402;2024-03-17T03:43:32;8.40;99.90
12015;DHT22;6066;48.138;16.402;2024-03-17T03:45:59;8.30;99.90
12015;DHT22;6066;48.138;16.402;2024-03-17T03:48:27;8.30;99.90
12015;DHT22;6066;48.138;16.402;2024-03-17T03:50:54;8.30;99.90
12015;DHT22;6066;48.138;16.402;2024-03-17T03:53:21;8.30;99.90
12015;DHT22;6066;48.138;16.402;2024-03-17T03:55:48;8.20;99.90
12015;DHT22;6066;48.138;16.402;2024-03-17T03:58:15;8.20;99.90
12015;DHT22;6066;48.138;16.402;2024-03-17T04:00:41;8.10;99.90
12015;DHT22;6066;48.138;16.402;2024-03-17T04:03:08;8.10;99.90
12015;DHT22;6066;48.138;16.402;2024-03-17T04:05:36;8.10;99.90
12015;DHT22;6066;48.138;16.402;2024-03-17T04:08:04;8.00;99.90
12015;DHT22;6066;48.138;16.402;2024-03-17T04:10:31;7.90;99.90
12015;DHT22;6066;48.138;16.402;2024-03-17T04:12:58;7.90;99.90
12015;DHT22;6066;48.138;16.402;2024-03-17T04:15:24;7.90;99.90
12015;DHT22;6066;48.138;16.402;2024-03-17T04:17:51;7.80;99.90
12015;DHT22;6066;48.138;16.402;2024-03-17T04:20:18;7.80;99.90
12015;DHT22;6066;48.138;16.402;2024-03-17T04:22:47;7.70;99.90
12015;DHT22;6066;48.138;16.402;2024-03-17T04:25:14;7.70;99.90
12015;DHT22;6066;48.138;16.402;2024-03-17T04:27:40;7.70;99.90
12015;DHT22;6066;48.138;16.402;2024-03-17T04:30:07;7.70;99.90
12015;DHT22;6066;48.138;16.402;2024-03-17T04:32:37;7.60;99.90
12015;DHT22;6066;48.138;16.402;2024-03-17T04:35:04;7.60;99.90
12015;DHT22;6066;48.138;16.402;2024-03-17T04:37:32;7.60;99.90
12015;DHT22;6066;48.138;16.402;2024-03-17T04:40:06;7.60;99.90
12015;DHT22;6066;48.138;16.402;2024-03-17T04:42:34;7.60;99.90
12015;DHT22;6066;48.138;16.402;2024-03-17T04:45:01;7.60;99.90
12015;DHT22;6066;48.138;16.402;2024-03-17T04:47:28;7.60;99.90
12015;DHT22;6066;48.138;16.402;2024-03-17T04:49:55;7.60;99.90
12015;DHT22;6066;48.138;16.402;2024-03-17T04:52:22;7.70;99.90
12015;DHT22;6066;48.138;16.402;2024-03-17T04:54:48;7.70;99.90
12015;DHT22;6066;48.138;16.402;2024-03-17T04:57:16;7.70;99.90
12015;DHT22;6066;48.138;16.402;2024-03-17T04:59:43;7.60;99.90
12015;DHT22;6066;48.138;16.402;2024-03-17T05:02:10;7.70;99.90
12015;DHT22;6066;48.138;16.402;2024-03-17T05:04:37;7.60;99.90
12015;DHT22;6066;48.138;16.402;2024-03-17T05:07:03;7.60;99.90
12015;DHT22;6066;48.138;16.402;2024-03-17T05:09:30;7.60;99.90
12015;DHT22;6066;48.138;16.402;2024-03-17T05:11:57;7.50;99.90
12015;DHT22;6066;48.138;16.402;2024-03-17T05:14:25;7.60;99.90
12015;DHT22;6066;48.138;16.402;2024-03-17T05:16:52;7.50;99.90
12015;DHT22;6066;48.138;16.402;2024-03-17T05:19:19;7.60;99.90
12015;DHT22;6066;48.138;16.402;2024-03-17T05:21:45;7.50;99.90
12015;DHT22;6066;48.138;16.402;2024-03-17T05:24:12;7.50;99.90
12015;DHT22;6066;48.138;16.402;2024-03-17T05:26:39;7.40;99.90
12015;DHT22;6066;48.138;16.402;2024-03-17T05:29:07;7.50;99.90
12015;DHT22;6066;48.138;16.402;2024-03-17T05:31:35;7.40;99.90
12015;DHT22;6066;48.138;16.402;2024-03-17T05:34:04;7.40;99.90
12015;DHT22;6066;48.138;16.402;2024-03-17T05:36:31;7.40;99.90
12015;DHT22;6066;48.138;16.402;2024-03-17T05:38:59;7.50;99.90
12015;DHT22;6066;48.138;16.402;2024-03-17T05:41:26;7.50;99.90
12015;DHT22;6066;48.138;16.402;2024-03-17T05:43:53;7.50;99.90
12015;DHT22;6066;48.138;16.402;2024-03-17T05:46:23;7.60;99.90
12015;DHT22;6066;48.138;16.402;2024-03-17T05:48:52;7.60;99.90
12015;DHT22;6066;48.138;16.402;2024-03-17T05:51:19;7.60;99.90
12015;DHT22;6066;48.138;16.402;2024-03-17T05:53:46;7.60;99.90
12015;DHT22;6066;48.138;16.402;2024-03-17T05:56:12;7.70;99.90
12015;DHT22;6066;48.138;16.402;2024-03-17T05:58:38;7.70;99.90
12015;DHT22;6066;48.138;16.402;2024-03-17T06:01:05;7.60;99.90
12015;DHT22;6066;48.138;16.402;2024-03-17T06:03:32;7.70;99.90
12015;DHT22;6066;48.138;16.402;2024-03-17T06:06:02;7.70;99.90
12015;DHT22;6066;48.138;16.402;2024-03-17T06:08:29;7.70;99.90
12015;DHT22;6066;48.138;16.402;2024-03-17T06:10:56;7.70;99.90
12015;DHT22;6066;48.138;16.402;2024-03-17T06:13:25;7.70;99.90
12015;DHT22;6066;48.138;16.402;2024-03-17T06:15:52;7.70;99.90
12015;DHT22;6066;48.138;16.402;2024-03-17T06:18:19;7.70;99.90
12015;DHT22;6066;48.138;16.402;2024-03-17T06:20:46;7.70;99.90
12015;DHT22;6066;48.138;16.402;2024-03-17T06:23:14;7.80;99.90
12015;DHT22;6066;48.138;16.402;2024-03-17T06:25:45;7.90;99.90
12015;DHT22;6066;48.138;16.402;2024-03-17T06:28:12;8.00;99.90
12015;DHT22;6066;48.138;16.402;2024-03-17T06:30:40;8.00;99.90
12015;DHT22;6066;48.138;16.402;2024-03-17T06:33:07;8.10;99.90
12015;DHT22;6066;48.138;16.402;2024-03-17T06:35:35;8.10;99.90
12015;DHT22;6066;48.138;16.402;2024-03-17T06:38:02;8.10;99.90
12015;DHT22;6066;48.138;16.402;2024-03-17T06:40:31;8.10;99.90
12015;DHT22;6066;48.138;16.402;2024-03-17T06:42:57;8.10;99.90
12015;DHT22;6066;48.138;16.402;2024-03-17T06:45:24;8.10;99.90
12015;DHT22;6066;48.138;16.402;2024-03-17T06:47:51;8.10;99.90
12015;DHT22;6066;48.138;16.402;2024-03-17T06:50:18;8.10;99.90
12015;DHT22;6066;48.138;16.402;2024-03-17T06:52:45;8.20;99.90
12015;DHT22;6066;48.138;16.402;2024-03-17T06:55:12;8.20;99.90
12015;DHT22;6066;48.138;16.402;2024-03-17T06:57:42;8.30;99.90
12015;DHT22;6066;48.138;16.402;2024-03-17T07:00:10;8.40;99.90
12015;DHT22;6066;48.138;16.402;2024-03-17T07:02:39;8.40;99.90
12015;DHT22;6066;48.138;16.402;2024-03-17T07:05:11;8.40;99.90
12015;DHT22;6066;48.138;16.402;2024-03-17T07:07:39;8.50;99.90
12015;DHT22;6066;48.138;16.402;2024-03-17T07:10:06;8.50;99.90
12015;DHT22;6066;48.138;16.402;2024-03-17T07:12:34;8.50;99.90
12015;DHT22;6066;48.138;16.402;2024-03-17T07:15:02;8.50;99.90
12015;DHT22;6066;48.138;16.402;2024-03-17T07:17:29;8.50;99.90
12015;DHT22;6066;48.138;16.402;2024-03-17T07:19:55;8.50;99.90
12015;DHT22;6066;48.138;16.402;2024-03-17T07:22:22;8.50;99.90
12015;DHT22;6066;48.138;16.402;2024-03-17T07:24:51;8.60;99.90
12015;DHT22;6066;48.138;16.402;2024-03-17T07:27:21;8.70;99.90
12015;DHT22;6066;48.138;16.402;2024-03-17T07:29:48;8.70;99.90
12015;DHT22;6066;48.138;16.402;2024-03-17T07:32:16;8.80;99.90
12015;DHT22;6066;48.138;16.402;2024-03-17T07:34:43;8.90;99.90
12015;DHT22;6066;48.138;16.402;2024-03-17T07:37:09;9.00;99.90
12015;DHT22;6066;48.138;16.402;2024-03-17T07:39:36;9.10;99.90
12015;DHT22;6066;48.138;16.402;2024-03-17T07:42:03;9.20;99.90
12015;DHT22;6066;48.138;16.402;2024-03-17T07:44:30;9.30;99.90
12015;DHT22;6066;48.138;16.402;2024-03-17T07:46:59;9.30;99.90
12015;DHT22;6066;48.138;16.402;2024-03-17T07:49:27;9.40;99.90
12015;DHT22;6066;48.138;16.402;2024-03-17T07:51:54;9.50;99.90
12015;DHT22;6066;48.138;16.402;2024-03-17T07:54:23;9.60;99.90
12015;DHT22;6066;48.138;16.402;2024-03-17T07:56:49;9.70;99.90
12015;DHT22;6066;48.138;16.402;2024-03-17T07:59:16;9.70;99.90
12015;DHT22;6066;48.138;16.402;2024-03-17T08:01:43;9.70;99.90
12015;DHT22;6066;48.138;16.402;2024-03-17T08:04:10;9.80;99.90
12015;DHT22;6066;48.138;16.402;2024-03-17T08:06:39;9.90;99.90
12015;DHT22;6066;48.138;16.402;2024-03-17T08:09:07;9.90;99.90
12015;DHT22;6066;48.138;16.402;2024-03-17T08:11:34;10.00;99.90
12015;DHT22;6066;48.138;16.402;2024-03-17T08:14:01;10.00;99.90
12015;DHT22;6066;48.138;16.402;2024-03-17T08:16:28;10.00;99.90
12015;DHT22;6066;48.138;16.402;2024-03-17T08:18:55;10.10;99.90
12015;DHT22;6066;48.138;16.402;2024-03-17T08:21:22;10.20;99.90
12015;DHT22;6066;48.138;16.402;2024-03-17T08:23:51;10.30;99.90
12015;DHT22;6066;48.138;16.402;2024-03-17T08:26:18;10.30;99.90
12015;DHT22;6066;48.138;16.402;2024-03-17T08:28:45;10.20;99.90
12015;DHT22;6066;48.138;16.402;2024-03-17T08:31:13;10.20;99.90
12015;DHT22;6066;48.138;16.402;2024-03-17T08:33:40;10.10;99.90
12015;DHT22;6066;48.138;16.402;2024-03-17T08:36:08;10.10;99.90
12015;DHT22;6066;48.138;16.402;2024-03-17T08:38:35;10.20;99.90
12015;DHT22;6066;48.138;16.402;2024-03-17T08:41:04;10.30;99.90
12015;DHT22;6066;48.138;16.402;2024-03-17T08:43:31;10.40;99.90
12015;DHT22;6066;48.138;16.402;2024-03-17T08:45:59;10.40;99.90
12015;DHT22;6066;48.138;16.402;2024-03-17T08:48:27;10.30;99.90
12015;DHT22;6066;48.138;16.402;2024-03-17T08:50:56;10.30;99.90
12015;DHT22;6066;48.138;16.402;2024-03-17T08:53:23;10.30;99.90
12015;DHT22;6066;48.138;16.402;2024-03-17T08:55:50;10.30;99.90
12015;DHT22;6066;48.138;16.402;2024-03-17T08:58:18;10.30;99.90
12015;DHT22;6066;48.138;16.402;2024-03-17T09:00:45;10.30;99.90
12015;DHT22;6066;48.138;16.402;2024-03-17T09:03:12;10.40;99.90
12015;DHT22;6066;48.138;16.402;2024-03-17T09:05:40;10.50;99.90
12015;DHT22;6066;48.138;16.402;2024-03-17T09:08:07;10.50;99.90
12015;DHT22;6066;48.138;16.402;2024-03-17T09:10:38;10.50;99.90
12015;DHT22;6066;48.138;16.402;2024-03-17T09:13:05;10.60;99.90
12015;DHT22;6066;48.138;16.402;2024-03-17T09:15:33;10.60;99.90
12015;DHT22;6066;48.138;16.402;2024-03-17T09:18:00;10.60;99.90
12015;DHT22;6066;48.138;16.402;2024-03-17T09:20:27;10.70;99.90
12015;DHT22;6066;48.138;16.402;2024-03-17T09:22:54;10.80;99.90
12015;DHT22;6066;48.138;16.402;2024-03-17T09:25:21;10.80;99.90
12015;DHT22;6066;48.138;16.402;2024-03-17T09:27:48;10.90;99.90
12015;DHT22;6066;48.138;16.402;2024-03-17T09:30:15;11.00;99.90
12015;DHT22;6066;48.138;16.402;2024-03-17T09:32:43;11.00;99.90
12015;DHT22;6066;48.138;16.402;2024-03-17T09:35:10;11.00;99.90
12015;DHT22;6066;48.138;16.402;2024-03-17T09:37:37;11.20;99.90
12015;DHT22;6066;48.138;16.402;2024-03-17T09:40:04;11.50;99.90
12015;DHT22;6066;48.138;16.402;2024-03-17T09:42:31;11.70;99.90
12015;DHT22;6066;48.138;16.402;2024-03-17T09:44:59;11.60;99.90
12015;DHT22;6066;48.138;16.402;2024-03-17T09:47:26;11.70;99.90
12015;DHT22;6066;48.138;16.402;2024-03-17T09:49:54;11.70;99.90
12015;DHT22;6066;48.138;16.402;2024-03-17T09:52:22;11.60;99.90
12015;DHT22;6066;48.138;16.402;2024-03-17T09:54:53;11.70;99.90
12015;DHT22;6066;48.138;16.402;2024-03-17T09:57:21;11.70;99.90
12015;DHT22;6066;48.138;16.402;2024-03-17T09:59:52;11.80;99.90
12015;DHT22;6066;48.138;16.402;2024-03-17T10:02:20;11.90;99.90
12015;DHT22;6066;48.138;16.402;2024-03-17T10:04:47;11.90;99.90
12015;DHT22;6066;48.138;16.402;2024-03-17T10:07:15;12.00;99.90
12015;DHT22;6066;48.138;16.402;2024-03-17T10:09:42;12.00;99.90
12015;DHT22;6066;48.138;16.402;2024-03-17T10:12:26;11.90;99.90
12015;DHT22;6066;48.138;16.402;2024-03-17T10:14:59;11.90;99.90
12015;DHT22;6066;48.138;16.402;2024-03-17T10:17:29;11.80;99.90
12015;DHT22;6066;48.138;16.402;2024-03-17T10:20:03;11.80;99.90
12015;DHT22;6066;48.138;16.402;2024-03-17T10:22:39;11.80;99.90
12015;DHT22;6066;48.138;16.402;2024-03-17T10:25:06;11.80;99.90
12015;DHT22;6066;48.138;16.402;2024-03-17T10:27:35;11.80;99.90
12015;DHT22;6066;48.138;16.402;2024-03-17T10:30:02;11.90;99.90
12015;DHT22;6066;48.138;16.402;2024-03-17T10:32:31;11.90;99.90
12015;DHT22;6066;48.138;16.402;2024-03-17T10:34:58;12.10;99.90
12015;DHT22;6066;48.138;16.402;2024-03-17T10:37:25;12.10;99.90
12015;DHT22;6066;48.138;16.402;2024-03-17T10:39:54;12.20;99.90
12015;DHT22;6066;48.138;16.402;2024-03-17T10:42:23;12.20;99.90
12015;DHT22;6066;48.138;16.402;2024-03-17T10:44:50;12.20;99.90
12015;DHT22;6066;48.138;16.402;2024-03-17T10:47:20;12.20;99.90
12015;DHT22;6066;48.138;16.402;2024-03-17T10:49:47;12.10;99.90
12015;DHT22;6066;48.138;16.402;2024-03-17T10:52:16;12.10;99.90
12015;DHT22;6066;48.138;16.402;2024-03-17T10:54:44;12.10;99.90
12015;DHT22;6066;48.138;16.402;2024-03-17T10:57:17;12.30;99.90
12015;DHT22;6066;48.138;16.402;2024-03-17T10:59:50;12.40;99.90
12015;DHT22;6066;48.138;16.402;2024-03-17T11:02:20;12.40;99.90
12015;DHT22;6066;48.138;16.402;2024-03-17T11:04:50;12.50;99.90
12015;DHT22;6066;48.138;16.402;2024-03-17T11:07:17;12.50;99.90
12015;DHT22;6066;48.138;16.402;2024-03-17T11:09:45;12.60;99.90
12015;DHT22;6066;48.138;16.402;2024-03-17T11:15:06;12.50;99.90
12015;DHT22;6066;48.138;16.402;2024-03-17T11:17:55;12.60;99.90
12015;DHT22;6066;48.138;16.402;2024-03-17T11:20:22;12.70;99.90
12015;DHT22;6066;48.138;16.402;2024-03-17T11:22:49;12.80;99.90
12015;DHT22;6066;48.138;16.402;2024-03-17T11:25:36;13.10;99.90
12015;DHT22;6066;48.138;16.402;2024-03-17T11:28:04;13.40;99.90
12015;DHT22;6066;48.138;16.402;2024-03-17T11:30:43;13.60;99.90
12015;DHT22;6066;48.138;16.402;2024-03-17T11:35:54;13.90;99.90
12015;DHT22;6066;48.138;16.402;2024-03-17T11:38:50;14.10;99.90
12015;DHT22;6066;48.138;16.402;2024-03-17T11:41:35;14.30;99.90
12015;DHT22;6066;48.138;16.402;2024-03-17T11:44:23;14.30;99.90
12015;DHT22;6066;48.138;16.402;2024-03-17T11:46:53;14.40;99.90
12015;DHT22;6066;48.138;16.402;2024-03-17T11:49:22;14.40;99.90
12015;DHT22;6066;48.138;16.402;2024-03-17T11:51:48;14.20;99.90
12015;DHT22;6066;48.138;16.402;2024-03-17T11:54:15;14.10;99.90
12015;DHT22;6066;48.138;16.402;2024-03-17T11:56:44;13.90;99.90
12015;DHT22;6066;48.138;16.402;2024-03-17T11:59:11;13.80;99.90
12015;DHT22;6066;48.138;16.402;2024-03-17T12:01:37;13.60;99.90
12015;DHT22;6066;48.138;16.402;2024-03-17T12:04:05;13.50;99.90
12015;DHT22;6066;48.138;16.402;2024-03-17T12:06:33;13.40;99.90
12015;DHT22;6066;48.138;16.402;2024-03-17T12:09:09;13.40;99.90
12015;DHT22;6066;48.138;16.402;2024-03-17T12:11:36;13.40;99.90
12015;DHT22;6066;48.138;16.402;2024-03-17T12:16:51;13.40;99.90
12015;DHT22;6066;48.138;16.402;2024-03-17T12:19:18;13.50;99.90
12015;DHT22;6066;48.138;16.402;2024-03-17T12:21:47;13.70;99.90
12015;DHT22;6066;48.138;16.402;2024-03-17T12:24:14;13.70;99.90
12015;DHT22;6066;48.138;16.402;2024-03-17T12:26:42;13.70;99.90
12015;DHT22;6066;48.138;16.402;2024-03-17T12:31:49;14.20;99.90
12015;DHT22;6066;48.138;16.402;2024-03-17T12:34:15;14.40;99.90
12015;DHT22;6066;48.138;16.402;2024-03-17T12:36:44;14.50;99.90
12015;DHT22;6066;48.138;16.402;2024-03-17T12:39:10;14.30;99.90
12015;DHT22;6066;48.138;16.402;2024-03-17T12:41:37;14.10;99.90
12015;DHT22;6066;48.138;16.402;2024-03-17T12:44:03;13.90;99.90
12015;DHT22;6066;48.138;16.402;2024-03-17T12:46:30;13.70;99.90
12015;DHT22;6066;48.138;16.402;2024-03-17T12:48:58;13.50;99.90
12015;DHT22;6066;48.138;16.402;2024-03-17T12:51:25;13.70;99.90
12015;DHT22;6066;48.138;16.402;2024-03-17T12:53:52;13.80;99.90
12015;DHT22;6066;48.138;16.402;2024-03-17T12:56:38;14.00;99.90
12015;DHT22;6066;48.138;16.402;2024-03-17T12:59:22;14.20;99.90
12015;DHT22;6066;48.138;16.402;2024-03-17T13:02:07;14.20;99.90
12015;DHT22;6066;48.138;16.402;2024-03-17T13:04:36;14.20;99.90
12015;DHT22;6066;48.138;16.402;2024-03-17T13:07:09;14.10;99.90
12015;DHT22;6066;48.138;16.402;2024-03-17T13:09:37;14.10;99.90
12015;DHT22;6066;48.138;16.402;2024-03-17T13:12:12;14.30;99.90
12015;DHT22;6066;48.138;16.402;2024-03-17T13:14:40;14.40;99.90
12015;DHT22;6066;48.138;16.402;2024-03-17T13:17:07;14.50;99.90
12015;DHT22;6066;48.138;16.402;2024-03-17T13:19:39;14.60;99.90
12015;DHT22;6066;48.138;16.402;2024-03-17T13:22:07;14.90;99.90
12015;DHT22;6066;48.138;16.402;2024-03-17T13:24:35;15.10;99.90
12015;DHT22;6066;48.138;16.402;2024-03-17T13:27:03;15.10;99.90
12015;DHT22;6066;48.138;16.402;2024-03-17T13:29:31;15.00;99.90
12015;DHT22;6066;48.138;16.402;2024-03-17T13:32:01;15.00;99.90
12015;DHT22;6066;48.138;16.402;2024-03-17T13:34:28;15.00;99.90
12015;DHT22;6066;48.138;16.402;2024-03-17T13:36:55;14.90;99.90
12015;DHT22;6066;48.138;16.402;2024-03-17T13:39:22;14.90;99.90
12015;DHT22;6066;48.138;16.402;2024-03-17T13:41:49;14.90;99.90
12015;DHT22;6066;48.138;16.402;2024-03-17T13:44:19;14.70;99.90
12015;DHT22;6066;48.138;16.402;2024-03-17T13:46:46;14.70;99.90
12015;DHT22;6066;48.138;16.402;2024-03-17T13:49:13;14.70;99.90
12015;DHT22;6066;48.138;16.402;2024-03-17T13:51:40;14.70;99.90
12015;DHT22;6066;48.138;16.402;2024-03-17T13:54:07;14.70;99.90
12015;DHT22;6066;48.138;16.402;2024-03-17T13:56:34;14.70;99.90
12015;DHT22;6066;48.138;16.402;2024-03-17T13:59:01;14.70;99.90
12015;DHT22;6066;48.138;16.402;2024-03-17T14:01:29;14.50;99.90
12015;DHT22;6066;48.138;16.402;2024-03-17T14:03:56;14.40;99.90
12015;DHT22;6066;48.138;16.402;2024-03-17T14:06:22;14.50;99.90
12015;DHT22;6066;48.138;16.402;2024-03-17T14:08:49;14.50;99.90
12015;DHT22;6066;48.138;16.402;2024-03-17T14:11:16;14.30;99.90
12015;DHT22;6066;48.138;16.402;2024-03-17T14:13:44;14.30;99.90
12015;DHT22;6066;48.138;16.402;2024-03-17T14:16:11;14.30;99.90
12015;DHT22;6066;48.138;16.402;2024-03-17T14:18:39;14.30;99.90
12015;DHT22;6066;48.138;16.402;2024-03-17T14:21:06;14.20;99.90
12015;DHT22;6066;48.138;16.402;2024-03-17T14:23:35;14.10;99.90
12015;DHT22;6066;48.138;16.402;2024-03-17T14:26:05;14.10;99.90
12015;DHT22;6066;48.138;16.402;2024-03-17T14:28:32;14.00;99.90
12015;DHT22;6066;48.138;16.402;2024-03-17T14:31:00;14.00;99.90
12015;DHT22;6066;48.138;16.402;2024-03-17T14:33:27;14.00;99.90
12015;DHT22;6066;48.138;16.402;2024-03-17T14:35:57;13.90;99.90
12015;DHT22;6066;48.138;16.402;2024-03-17T14:38:24;13.90;99.90
12015;DHT22;6066;48.138;16.402;2024-03-17T14:40:51;14.00;99.90
12015;DHT22;6066;48.138;16.402;2024-03-17T14:43:19;14.00;99.90
12015;DHT22;6066;48.138;16.402;2024-03-17T14:45:46;14.10;99.90
12015;DHT22;6066;48.138;16.402;2024-03-17T14:48:13;14.20;99.90
12015;DHT22;6066;48.138;16.402;2024-03-17T14:50:43;14.10;99.90
12015;DHT22;6066;48.138;16.402;2024-03-17T14:53:12;14.10;99.90
12015;DHT22;6066;48.138;16.402;2024-03-17T14:55:39;14.10;99.90
12015;DHT22;6066;48.138;16.402;2024-03-17T14:58:06;14.10;99.90
12015;DHT22;6066;48.138;16.402;2024-03-17T15:00:34;14.00;99.90
12015;DHT22;6066;48.138;16.402;2024-03-17T15:03:01;13.90;99.90
12015;DHT22;6066;48.138;16.402;2024-03-17T15:05:29;13.90;99.90
12015;DHT22;6066;48.138;16.402;2024-03-17T15:07:57;13.90;99.90
12015;DHT22;6066;48.138;16.402;2024-03-17T15:10:26;13.90;99.90
12015;DHT22;6066;48.138;16.402;2024-03-17T15:12:54;13.80;99.90
12015;DHT22;6066;48.138;16.402;2024-03-17T15:15:22;13.70;99.90
12015;DHT22;6066;48.138;16.402;2024-03-17T15:17:49;13.50;99.90
12015;DHT22;6066;48.138;16.402;2024-03-17T15:20:16;13.40;99.90
12015;DHT22;6066;48.138;16.402;2024-03-17T15:22:44;13.30;99.90
12015;DHT22;6066;48.138;16.402;2024-03-17T15:25:12;13.20;99.90
12015;DHT22;6066;48.138;16.402;2024-03-17T15:27:41;13.10;99.90
12015;DHT22;6066;48.138;16.402;2024-03-17T15:30:11;13.10;99.90
12015;DHT22;6066;48.138;16.402;2024-03-17T15:32:40;13.10;99.90
12015;DHT22;6066;48.138;16.402;2024-03-17T15:35:09;13.10;99.90
12015;DHT22;6066;48.138;16.402;2024-03-17T15:37:38;13.00;99.90
12015;DHT22;6066;48.138;16.402;2024-03-17T15:40:05;12.90;99.90
12015;DHT22;6066;48.138;16.402;2024-03-17T15:42:34;12.90;99.90
12015;DHT22;6066;48.138;16.402;2024-03-17T15:45:02;12.80;99.90
12015;DHT22;6066;48.138;16.402;2024-03-17T15:47:33;12.70;99.90
12015;DHT22;6066;48.138;16.402;2024-03-17T15:49:59;12.60;99.90
12015;DHT22;6066;48.138;16.402;2024-03-17T15:52:27;12.50;99.90